sensor_id;sensor_type;location;lat;lon;timestamp;pressure;altitude;pressure_sealevel;temperature;humidity
36192;BME280;22233;42.708;23.360;2023-02-18T00:01:19;96168.03;;;6.16;50.61
36192;BME280;22233;42.708;23.360;2023-02-18T00:03:45;96170.47;;;6.23;50.35
36192;BME280;22233;42.708;23.360;2023-02-18T00:06:12;96170.47;;;6.18;50.35
36192;BME280;22233;42.708;23.360;2023-02-18T00:08:39;96160.44;;;6.03;50.53
36192;BME280;22233;42.708;23.360;2023-02-18T00:11:05;96168.56;;;6.08;50.81
36192;BME280;22233;42.708;23.360;2023-02-18T00:13:30;96175.00;;;6.02;50.78
36192;BME280;22233;42.708;23.360;2023-02-18T00:16:01;96142.59;;;5.92;50.81
36192;BME280;22233;42.708;23.360;2023-02-18T00:18:26;96154.94;;;5.83;51.11
36192;BME280;22233;42.708;23.360;2023-02-18T00:20:51;96137.16;;;5.82;50.89
36192;BME280;22233;42.708;23.360;2023-02-18T00:23:17;96140.13;;;5.80;51.40
36192;BME280;22233;42.708;23.360;2023-02-18T00:25:42;96140.66;;;5.87;51.08
36192;BME280;22233;42.708;23.360;2023-02-18T00:28:08;96113.94;;;5.75;51.63
36192;BME280;22233;42.708;23.360;2023-02-18T00:30:33;96125.53;;;5.81;51.37
36192;BME280;22233;42.708;23.360;2023-02-18T00:32:58;96121.53;;;5.84;51.24
36192;BME280;22233;42.708;23.360;2023-02-18T00:35:24;96126.56;;;5.65;51.49
36192;BME280;22233;42.708;23.360;2023-02-18T00:37:52;96101.72;;;5.52;51.85
36192;BME280;22233;42.708;23.360;2023-02-18T00:40:19;96127.91;;;5.67;52.54
36192;BME280;22233;42.708;23.360;2023-02-18T00:42:44;96109.97;;;5.25;52.79
36192;BME280;22233;42.708;23.360;2023-02-18T00:45:10;96126.78;;;5.53;52.45
36192;BME280;22233;42.708;23.360;2023-02-18T00:47:35;96126.06;;;5.68;51.76
36192;BME280;22233;42.708;23.360;2023-02-18T00:50:01;96121.44;;;5.58;52.35
36192;BME280;22233;42.708;23.360;2023-02-18T00:52:26;96123.75;;;5.34;52.54
36192;BME280;22233;42.708;23.360;2023-02-18T00:54:51;96108.88;;;5.26;52.95
36192;BME280;22233;42.708;23.360;2023-02-18T00:57:17;96100.81;;;5.26;52.63
36192;BME280;22233;42.708;23.360;2023-02-18T00:59:42;96104.84;;;5.29;52.92
36192;BME280;22233;42.708;23.360;2023-02-18T01:02:08;96119.91;;;5.19;53.33
36192;BME280;22233;42.708;23.360;2023-02-18T01:04:33;96116.38;;;5.14;52.70
36192;BME280;22233;42.708;23.360;2023-02-18T01:06:58;96122.06;;;5.17;52.59
36192;BME280;22233;42.708;23.360;2023-02-18T01:09:24;96133.38;;;5.19;52.77
36192;BME280;22233;42.708;23.360;2023-02-18T01:11:50;96120.09;;;5.08;53.02
36192;BME280;22233;42.708;23.360;2023-02-18T01:14:15;96122.19;;;5.00;53.11
36192;BME280;22233;42.708;23.360;2023-02-18T01:16:41;96118.25;;;5.13;52.79
36192;BME280;22233;42.708;23.360;2023-02-18T01:19:06;96106.91;;;4.31;54.24
36192;BME280;22233;42.708;23.360;2023-02-18T01:21:31;96116.34;;;4.34;55.14
36192;BME280;22233;42.708;23.360;2023-02-18T01:23:57;96101.22;;;4.28;55.50
36192;BME280;22233;42.708;23.360;2023-02-18T01:26:23;96119.25;;;4.27;55.22
36192;BME280;22233;42.708;23.360;2023-02-18T01:28:49;96115.63;;;4.16;55.58
36192;BME280;22233;42.708;23.360;2023-02-18T01:31:14;96096.38;;;4.25;55.25
36192;BME280;22233;42.708;23.360;2023-02-18T01:33:40;96108.31;;;4.07;56.54
36192;BME280;22233;42.708;23.360;2023-02-18T01:36:07;96099.84;;;4.25;55.82
36192;BME280;22233;42.708;23.360;2023-02-18T01:38:33;96094.25;;;4.32;54.55
36192;BME280;22233;42.708;23.360;2023-02-18T01:40:58;96115.34;;;4.45;55.45
36192;BME280;22233;42.708;23.360;2023-02-18T01:43:24;96113.97;;;4.43;55.42
36192;BME280;22233;42.708;23.360;2023-02-18T01:45:51;96117.81;;;4.47;54.81
36192;BME280;22233;42.708;23.360;2023-02-18T01:50:53;96130.97;;;4.48;54.44
36192;BME280;22233;42.708;23.360;2023-02-18T01:53:28;96113.09;;;4.32;54.91
36192;BME280;22233;42.708;23.360;2023-02-18T01:55:56;96124.63;;;4.27;55.08
36192;BME280;22233;42.708;23.360;2023-02-18T01:58:22;96111.63;;;4.19;55.57
36192;BME280;22233;42.708;23.360;2023-02-18T02:00:48;96122.19;;;3.98;56.07
36192;BME280;22233;42.708;23.360;2023-02-18T02:03:14;96115.75;;;3.99;56.67
36192;BME280;22233;42.708;23.360;2023-02-18T02:05:39;96112.03;;;3.78;57.11
36192;BME280;22233;42.708;23.360;2023-02-18T02:08:05;96107.06;;;3.92;57.33
36192;BME280;22233;42.708;23.360;2023-02-18T02:10:46;96108.81;;;3.54;58.55
36192;BME280;22233;42.708;23.360;2023-02-18T02:16:26;96093.94;;;3.96;57.13
36192;BME280;22233;42.708;23.360;2023-02-18T02:22:31;96121.66;;;3.96;57.74
36192;BME280;22233;42.708;23.360;2023-02-18T02:25:26;96116.00;;;3.71;59.29
36192;BME280;22233;42.708;23.360;2023-02-18T02:28:26;96115.78;;;3.77;58.77
36192;BME280;22233;42.708;23.360;2023-02-18T02:33:49;96112.00;;;4.00;58.22
36192;BME280;22233;42.708;23.360;2023-02-18T02:44:23;96080.22;;;4.57;56.97
36192;BME280;22233;42.708;23.360;2023-02-18T02:46:59;96096.50;;;4.83;56.29
36192;BME280;22233;42.708;23.360;2023-02-18T02:54:29;96094.97;;;4.97;54.38
36192;BME280;22233;42.708;23.360;2023-02-18T02:59:29;96117.66;;;4.64;54.15
36192;BME280;22233;42.708;23.360;2023-02-18T03:02:07;96117.56;;;4.53;54.79
36192;BME280;22233;42.708;23.360;2023-02-18T03:07:26;96119.19;;;4.22;55.51
36192;BME280;22233;42.708;23.360;2023-02-18T03:12:52;96104.00;;;3.56;56.86
36192;BME280;22233;42.708;23.360;2023-02-18T03:15:54;96107.16;;;3.48;58.08
36192;BME280;22233;42.708;23.360;2023-02-18T03:18:33;96113.69;;;3.57;57.13
36192;BME280;22233;42.708;23.360;2023-02-18T03:24:01;96132.88;;;3.44;58.98
36192;BME280;22233;42.708;23.360;2023-02-18T03:26:27;96145.03;;;3.52;57.60
36192;BME280;22233;42.708;23.360;2023-02-18T03:28:58;96143.31;;;3.40;58.49
36192;BME280;22233;42.708;23.360;2023-02-18T03:31:26;96151.94;;;3.43;58.43
36192;BME280;22233;42.708;23.360;2023-02-18T03:34:03;96146.25;;;3.00;58.67
36192;BME280;22233;42.708;23.360;2023-02-18T03:36:31;96139.38;;;3.09;59.17
36192;BME280;22233;42.708;23.360;2023-02-18T03:41:26;96163.28;;;2.72;60.82
36192;BME280;22233;42.708;23.360;2023-02-18T03:43:52;96157.59;;;2.68;60.85
36192;BME280;22233;42.708;23.360;2023-02-18T03:46:20;96154.25;;;2.61;60.72
36192;BME280;22233;42.708;23.360;2023-02-18T03:48:46;96143.59;;;2.66;61.04
36192;BME280;22233;42.708;23.360;2023-02-18T03:51:11;96155.34;;;2.99;60.18
36192;BME280;22233;42.708;23.360;2023-02-18T03:53:37;96154.88;;;2.85;61.25
36192;BME280;22233;42.708;23.360;2023-02-18T03:56:02;96145.28;;;3.06;60.28
36192;BME280;22233;42.708;23.360;2023-02-18T03:58:28;96153.97;;;2.96;61.14
36192;BME280;22233;42.708;23.360;2023-02-18T04:00:53;96129.13;;;2.84;60.83
36192;BME280;22233;42.708;23.360;2023-02-18T04:03:19;96153.69;;;3.15;60.02
36192;BME280;22233;42.708;23.360;2023-02-18T04:05:44;96149.25;;;3.43;59.06
36192;BME280;22233;42.708;23.360;2023-02-18T04:08:09;96161.78;;;3.59;59.42
36192;BME280;22233;42.708;23.360;2023-02-18T04:10:35;96156.06;;;3.72;58.82
36192;BME280;22233;42.708;23.360;2023-02-18T04:13:00;96157.91;;;3.72;59.32
36192;BME280;22233;42.708;23.360;2023-02-18T04:15:26;96147.66;;;3.91;57.98
36192;BME280;22233;42.708;23.360;2023-02-18T04:17:51;96152.34;;;4.00;58.52
36192;BME280;22233;42.708;23.360;2023-02-18T04:20:17;96118.69;;;3.71;58.24
36192;BME280;22233;42.708;23.360;2023-02-18T04:22:43;96119.72;;;3.70;58.40
36192;BME280;22233;42.708;23.360;2023-02-18T04:25:08;96134.66;;;3.83;58.17
36192;BME280;22233;42.708;23.360;2023-02-18T04:27:34;96120.09;;;4.06;57.41
36192;BME280;22233;42.708;23.360;2023-02-18T04:29:59;96137.59;;;4.08;57.47
36192;BME280;22233;42.708;23.360;2023-02-18T04:32:25;96132.25;;;3.86;57.97
36192;BME280;22233;42.708;23.360;2023-02-18T04:34:50;96119.91;;;3.85;57.66
36192;BME280;22233;42.708;23.360;2023-02-18T04:37:16;96131.69;;;3.84;58.26
36192;BME280;22233;42.708;23.360;2023-02-18T04:39:41;96116.88;;;3.76;57.79
36192;BME280;22233;42.708;23.360;2023-02-18T04:42:07;96125.19;;;3.53;58.72
36192;BME280;22233;42.708;23.360;2023-02-18T04:44:35;96150.50;;;3.84;58.33
36192;BME280;22233;42.708;23.360;2023-02-18T04:47:02;96109.47;;;3.89;57.78
36192;BME280;22233;42.708;23.360;2023-02-18T04:49:28;96137.41;;;4.15;57.73
36192;BME280;22233;42.708;23.360;2023-02-18T04:51:53;96124.75;;;3.88;57.98
36192;BME280;22233;42.708;23.360;2023-02-18T04:54:18;96143.81;;;4.09;57.61
36192;BME280;22233;42.708;23.360;2023-02-18T04:56:44;96148.88;;;4.05;57.71
36192;BME280;22233;42.708;23.360;2023-02-18T04:59:09;96117.31;;;3.68;58.14
36192;BME280;22233;42.708;23.360;2023-02-18T05:01:35;96147.34;;;3.87;58.36
36192;BME280;22233;42.708;23.360;2023-02-18T05:04:01;96150.19;;;4.03;57.69
36192;BME280;22233;42.708;23.360;2023-02-18T05:06:26;96150.88;;;4.15;58.07
36192;BME280;22233;42.708;23.360;2023-02-18T05:08:52;96125.13;;;3.97;57.74
36192;BME280;22233;42.708;23.360;2023-02-18T05:11:17;96144.59;;;3.82;58.67
36192;BME280;22233;42.708;23.360;2023-02-18T05:13:42;96142.63;;;3.72;58.82
36192;BME280;22233;42.708;23.360;2023-02-18T05:16:08;96116.59;;;3.78;59.25
36192;BME280;22233;42.708;23.360;2023-02-18T05:18:33;96130.09;;;3.83;58.38
36192;BME280;22233;42.708;23.360;2023-02-18T05:20:59;96115.28;;;4.08;58.68
36192;BME280;22233;42.708;23.360;2023-02-18T05:23:24;96118.59;;;4.15;58.28
36192;BME280;22233;42.708;23.360;2023-02-18T05:25:50;96133.25;;;4.29;58.32
36192;BME280;22233;42.708;23.360;2023-02-18T05:28:16;96130.97;;;4.16;58.45
36192;BME280;22233;42.708;23.360;2023-02-18T05:30:41;96122.75;;;4.00;58.40
36192;BME280;22233;42.708;23.360;2023-02-18T05:33:06;96149.38;;;4.29;57.71
36192;BME280;22233;42.708;23.360;2023-02-18T05:35:32;96140.38;;;4.46;57.19
36192;BME280;22233;42.708;23.360;2023-02-18T05:37:57;96147.75;;;4.28;57.56
36192;BME280;22233;42.708;23.360;2023-02-18T05:40:23;96143.25;;;4.07;57.68
36192;BME280;22233;42.708;23.360;2023-02-18T05:42:48;96142.13;;;4.03;58.68
36192;BME280;22233;42.708;23.360;2023-02-18T05:45:14;96130.09;;;4.10;58.07
36192;BME280;22233;42.708;23.360;2023-02-18T05:47:39;96146.78;;;4.39;56.85
36192;BME280;22233;42.708;23.360;2023-02-18T05:50:05;96138.09;;;4.32;57.34
36192;BME280;22233;42.708;23.360;2023-02-18T05:52:31;96130.56;;;4.29;57.29
36192;BME280;22233;42.708;23.360;2023-02-18T05:54:56;96156.91;;;4.27;57.66
36192;BME280;22233;42.708;23.360;2023-02-18T05:57:22;96147.97;;;4.22;57.51
36192;BME280;22233;42.708;23.360;2023-02-18T05:59:47;96143.22;;;4.34;57.59
36192;BME280;22233;42.708;23.360;2023-02-18T06:02:13;96147.56;;;4.35;57.23
36192;BME280;22233;42.708;23.360;2023-02-18T06:04:38;96149.78;;;4.43;57.71
36192;BME280;22233;42.708;23.360;2023-02-18T06:07:05;96150.09;;;4.47;57.73
36192;BME280;22233;42.708;23.360;2023-02-18T06:09:30;96149.06;;;4.53;56.44
36192;BME280;22233;42.708;23.360;2023-02-18T06:11:55;96162.31;;;4.65;56.89
36192;BME280;22233;42.708;23.360;2023-02-18T06:14:21;96146.44;;;5.00;56.47
36192;BME280;22233;42.708;23.360;2023-02-18T06:16:46;96155.19;;;5.18;56.22
36192;BME280;22233;42.708;23.360;2023-02-18T06:19:12;96124.59;;;4.97;55.71
36192;BME280;22233;42.708;23.360;2023-02-18T06:21:37;96144.03;;;5.04;56.45
36192;BME280;22233;42.708;23.360;2023-02-18T06:24:03;96133.75;;;4.96;56.09
36192;BME280;22233;42.708;23.360;2023-02-18T06:26:28;96131.72;;;5.13;56.06
36192;BME280;22233;42.708;23.360;2023-02-18T06:28:54;96146.66;;;5.31;56.10
36192;BME280;22233;42.708;23.360;2023-02-18T06:31:19;96130.19;;;5.33;56.08
36192;BME280;22233;42.708;23.360;2023-02-18T06:33:45;96141.41;;;5.62;55.69
36192;BME280;22233;42.708;23.360;2023-02-18T06:36:11;96145.69;;;5.63;55.63
36192;BME280;22233;42.708;23.360;2023-02-18T06:38:39;96156.25;;;5.75;55.93
36192;BME280;22233;42.708;23.360;2023-02-18T06:41:05;96143.34;;;5.82;55.62
36192;BME280;22233;42.708;23.360;2023-02-18T06:43:30;96146.03;;;5.72;55.12
36192;BME280;22233;42.708;23.360;2023-02-18T06:45:56;96140.03;;;5.59;55.78
36192;BME280;22233;42.708;23.360;2023-02-18T06:48:22;96151.19;;;5.89;54.85
36192;BME280;22233;42.708;23.360;2023-02-18T06:50:47;96120.72;;;5.88;55.45
36192;BME280;22233;42.708;23.360;2023-02-18T06:53:13;96132.09;;;5.95;55.52
36192;BME280;22233;42.708;23.360;2023-02-18T06:55:41;96149.84;;;5.91;55.87
36192;BME280;22233;42.708;23.360;2023-02-18T06:58:08;96133.28;;;6.51;57.66
36192;BME280;22233;42.708;23.360;2023-02-18T07:00:34;96139.72;;;6.50;54.36
36192;BME280;22233;42.708;23.360;2023-02-18T07:03:00;96139.41;;;6.15;55.91
36192;BME280;22233;42.708;23.360;2023-02-18T07:05:26;96137.81;;;5.46;56.07
36192;BME280;22233;42.708;23.360;2023-02-18T07:07:51;96129.88;;;5.82;55.61
36192;BME280;22233;42.708;23.360;2023-02-18T07:10:16;96143.19;;;6.04;55.58
36192;BME280;22233;42.708;23.360;2023-02-18T07:12:42;96138.34;;;6.22;55.44
36192;BME280;22233;42.708;23.360;2023-02-18T07:15:08;96120.81;;;6.09;54.75
36192;BME280;22233;42.708;23.360;2023-02-18T07:17:33;96118.94;;;6.14;54.20
36192;BME280;22233;42.708;23.360;2023-02-18T07:19:59;96121.38;;;6.26;54.79
36192;BME280;22233;42.708;23.360;2023-02-18T07:22:25;96123.78;;;6.17;55.05
36192;BME280;22233;42.708;23.360;2023-02-18T07:24:51;96129.47;;;6.16;55.23
36192;BME280;22233;42.708;23.360;2023-02-18T07:27:18;96111.94;;;6.34;54.91
36192;BME280;22233;42.708;23.360;2023-02-18T07:29:44;96123.00;;;6.32;54.54
36192;BME280;22233;42.708;23.360;2023-02-18T07:32:11;96134.34;;;6.34;55.21
36192;BME280;22233;42.708;23.360;2023-02-18T07:34:37;96135.69;;;6.42;54.44
36192;BME280;22233;42.708;23.360;2023-02-18T07:37:02;96125.97;;;6.62;54.58
36192;BME280;22233;42.708;23.360;2023-02-18T07:39:38;96131.09;;;6.84;53.37
36192;BME280;22233;42.708;23.360;2023-02-18T07:42:04;96105.72;;;6.69;52.83
36192;BME280;22233;42.708;23.360;2023-02-18T07:44:29;96121.38;;;6.93;52.56
36192;BME280;22233;42.708;23.360;2023-02-18T07:46:55;96118.63;;;7.08;51.93
36192;BME280;22233;42.708;23.360;2023-02-18T07:49:20;96133.16;;;7.38;51.63
36192;BME280;22233;42.708;23.360;2023-02-18T07:51:47;96142.09;;;7.33;50.98
36192;BME280;22233;42.708;23.360;2023-02-18T07:54:13;96137.78;;;7.32;50.67
36192;BME280;22233;42.708;23.360;2023-02-18T07:56:38;96128.63;;;7.23;51.41
36192;BME280;22233;42.708;23.360;2023-02-18T07:59:04;96136.19;;;7.16;51.40
36192;BME280;22233;42.708;23.360;2023-02-18T08:01:29;96134.56;;;7.25;51.45
36192;BME280;22233;42.708;23.360;2023-02-18T08:03:55;96109.63;;;7.49;50.88
36192;BME280;22233;42.708;23.360;2023-02-18T08:06:32;96113.09;;;7.54;50.81
36192;BME280;22233;42.708;23.360;2023-02-18T08:08:58;96129.31;;;7.65;50.77
36192;BME280;22233;42.708;23.360;2023-02-18T08:11:24;96125.81;;;8.14;49.99
36192;BME280;22233;42.708;23.360;2023-02-18T08:13:50;96130.78;;;8.46;48.32
36192;BME280;22233;42.708;23.360;2023-02-18T08:16:17;96111.06;;;8.35;49.51
36192;BME280;22233;42.708;23.360;2023-02-18T08:18:44;96106.28;;;8.22;48.96
36192;BME280;22233;42.708;23.360;2023-02-18T08:21:09;96123.88;;;8.64;48.50
36192;BME280;22233;42.708;23.360;2023-02-18T08:23:34;96109.41;;;9.08;47.53
36192;BME280;22233;42.708;23.360;2023-02-18T08:26:00;96100.94;;;9.15;47.87
36192;BME280;22233;42.708;23.360;2023-02-18T08:28:25;96100.31;;;9.47;45.73
36192;BME280;22233;42.708;23.360;2023-02-18T08:30:52;96117.47;;;9.67;46.22
36192;BME280;22233;42.708;23.360;2023-02-18T08:33:19;96130.84;;;9.82;45.92
36192;BME280;22233;42.708;23.360;2023-02-18T08:35:45;96106.34;;;9.87;45.65
36192;BME280;22233;42.708;23.360;2023-02-18T08:38:12;96094.56;;;9.97;44.85
36192;BME280;22233;42.708;23.360;2023-02-18T08:40:37;96117.09;;;9.73;46.61
36192;BME280;22233;42.708;23.360;2023-02-18T08:43:05;96107.25;;;10.02;45.20
36192;BME280;22233;42.708;23.360;2023-02-18T08:45:31;96110.66;;;10.31;45.28
36192;BME280;22233;42.708;23.360;2023-02-18T08:47:56;96101.84;;;10.39;45.07
36192;BME280;22233;42.708;23.360;2023-02-18T08:50:21;96120.03;;;10.58;44.63
36192;BME280;22233;42.708;23.360;2023-02-18T08:52:50;96118.00;;;10.50;44.32
36192;BME280;22233;42.708;23.360;2023-02-18T08:55:16;96099.06;;;10.45;44.57
36192;BME280;22233;42.708;23.360;2023-02-18T08:57:44;96118.06;;;10.64;44.50
36192;BME280;22233;42.708;23.360;2023-02-18T09:00:10;96104.91;;;10.52;44.15
36192;BME280;22233;42.708;23.360;2023-02-18T09:02:37;96112.44;;;10.74;43.80
36192;BME280;22233;42.708;23.360;2023-02-18T09:05:03;96091.50;;;10.74;43.71
36192;BME280;22233;42.708;23.360;2023-02-18T09:07:28;96107.56;;;10.90;43.68
36192;BME280;22233;42.708;23.360;2023-02-18T09:09:54;96112.94;;;10.95;43.11
36192;BME280;22233;42.708;23.360;2023-02-18T09:12:19;96108.00;;;10.97;43.11
36192;BME280;22233;42.708;23.360;2023-02-18T09:14:46;96067.22;;;10.97;42.89
36192;BME280;22233;42.708;23.360;2023-02-18T09:17:12;96089.84;;;11.25;42.47
36192;BME280;22233;42.708;23.360;2023-02-18T09:19:37;96093.25;;;11.45;42.33
36192;BME280;22233;42.708;23.360;2023-02-18T09:22:03;96088.13;;;11.71;42.56
36192;BME280;22233;42.708;23.360;2023-02-18T09:24:28;96106.56;;;11.74;41.95
36192;BME280;22233;42.708;23.360;2023-02-18T09:26:54;96092.56;;;11.67;41.89
36192;BME280;22233;42.708;23.360;2023-02-18T09:29:19;96089.84;;;11.94;41.26
36192;BME280;22233;42.708;23.360;2023-02-18T09:31:45;96085.09;;;12.00;41.66
36192;BME280;22233;42.708;23.360;2023-02-18T09:34:11;96076.44;;;11.98;41.10
36192;BME280;22233;42.708;23.360;2023-02-18T09:36:38;96070.50;;;11.96;42.41
36192;BME280;22233;42.708;23.360;2023-02-18T09:39:05;96085.41;;;11.98;42.28
36192;BME280;22233;42.708;23.360;2023-02-18T09:44:04;96081.22;;;12.51;41.13
36192;BME280;22233;42.708;23.360;2023-02-18T09:46:41;96082.72;;;12.80;40.69
36192;BME280;22233;42.708;23.360;2023-02-18T09:49:19;96081.59;;;12.58;39.84
36192;BME280;22233;42.708;23.360;2023-02-18T09:51:45;96073.22;;;12.77;40.01
36192;BME280;22233;42.708;23.360;2023-02-18T09:54:13;96088.38;;;13.15;39.63
36192;BME280;22233;42.708;23.360;2023-02-18T09:56:40;96070.53;;;13.09;40.38
36192;BME280;22233;42.708;23.360;2023-02-18T09:59:12;96040.91;;;13.16;38.89
36192;BME280;22233;42.708;23.360;2023-02-18T10:01:40;96070.69;;;13.35;39.64
36192;BME280;22233;42.708;23.360;2023-02-18T10:04:16;96069.00;;;13.56;39.02
36192;BME280;22233;42.708;23.360;2023-02-18T10:06:44;96065.34;;;13.70;38.56
36192;BME280;22233;42.708;23.360;2023-02-18T10:11:42;96050.28;;;13.81;38.08
36192;BME280;22233;42.708;23.360;2023-02-18T10:14:12;96041.97;;;13.95;37.64
36192;BME280;22233;42.708;23.360;2023-02-18T10:16:39;96035.31;;;13.70;36.86
36192;BME280;22233;42.708;23.360;2023-02-18T10:19:29;96044.69;;;14.12;34.67
36192;BME280;22233;42.708;23.360;2023-02-18T10:21:56;96050.66;;;14.32;34.95
36192;BME280;22233;42.708;23.360;2023-02-18T10:24:44;96025.44;;;14.44;34.18
36192;BME280;22233;42.708;23.360;2023-02-18T10:27:17;96033.31;;;14.63;33.91
36192;BME280;22233;42.708;23.360;2023-02-18T10:29:43;96022.50;;;14.84;33.18
36192;BME280;22233;42.708;23.360;2023-02-18T10:32:22;96029.56;;;14.93;32.55
36192;BME280;22233;42.708;23.360;2023-02-18T10:49:18;95990.63;;;15.35;32.38
36192;BME280;22233;42.708;23.360;2023-02-18T10:51:50;95991.22;;;15.49;31.83
36192;BME280;22233;42.708;23.360;2023-02-18T10:54:17;95976.47;;;15.92;30.71
36192;BME280;22233;42.708;23.360;2023-02-18T10:56:47;95988.34;;;16.17;30.71
36192;BME280;22233;42.708;23.360;2023-02-18T10:59:20;95985.28;;;15.98;30.93
36192;BME280;22233;42.708;23.360;2023-02-18T11:01:54;95969.94;;;16.06;30.61
36192;BME280;22233;42.708;23.360;2023-02-18T11:04:25;95980.94;;;15.67;30.87
36192;BME280;22233;42.708;23.360;2023-02-18T11:06:52;95976.13;;;15.64;30.92
36192;BME280;22233;42.708;23.360;2023-02-18T11:12:23;95963.66;;;15.16;31.49
36192;BME280;22233;42.708;23.360;2023-02-18T11:17:34;95942.09;;;15.14;31.83
36192;BME280;22233;42.708;23.360;2023-02-18T11:25:35;95956.09;;;15.13;32.01
36192;BME280;22233;42.708;23.360;2023-02-18T11:28:03;95944.13;;;15.26;31.96
36192;BME280;22233;42.708;23.360;2023-02-18T11:33:42;95938.88;;;15.12;32.16
36192;BME280;22233;42.708;23.360;2023-02-18T11:36:29;95913.41;;;15.21;31.81
36192;BME280;22233;42.708;23.360;2023-02-18T11:39:00;95936.72;;;14.97;32.60
36192;BME280;22233;42.708;23.360;2023-02-18T11:41:37;95924.03;;;15.22;32.25
36192;BME280;22233;42.708;23.360;2023-02-18T11:44:07;95918.50;;;15.31;32.19
36192;BME280;22233;42.708;23.360;2023-02-18T11:47:02;95901.56;;;15.37;32.58
36192;BME280;22233;42.708;23.360;2023-02-18T11:49:29;95894.53;;;15.78;32.33
36192;BME280;22233;42.708;23.360;2023-02-18T11:52:04;95930.03;;;15.96;32.11
36192;BME280;22233;42.708;23.360;2023-02-18T11:54:30;95914.66;;;15.53;33.12
36192;BME280;22233;42.708;23.360;2023-02-18T11:57:03;95898.22;;;16.04;32.49
36192;BME280;22233;42.708;23.360;2023-02-18T11:59:32;95907.78;;;15.76;32.48
36192;BME280;22233;42.708;23.360;2023-02-18T12:04:44;95865.78;;;16.06;32.47
36192;BME280;22233;42.708;23.360;2023-02-18T12:07:19;95876.03;;;16.30;32.44
36192;BME280;22233;42.708;23.360;2023-02-18T12:09:49;95872.91;;;16.77;31.95
36192;BME280;22233;42.708;23.360;2023-02-18T12:12:26;95887.00;;;17.00;31.73
36192;BME280;22233;42.708;23.360;2023-02-18T12:14:55;95878.28;;;16.73;32.08
36192;BME280;22233;42.708;23.360;2023-02-18T12:20:35;95885.53;;;17.15;31.75
36192;BME280;22233;42.708;23.360;2023-02-18T12:29:00;95870.97;;;16.65;32.69
36192;BME280;22233;42.708;23.360;2023-02-18T12:37:37;95832.84;;;16.27;33.40
36192;BME280;22233;42.708;23.360;2023-02-18T12:40:36;95839.66;;;16.66;33.11
36192;BME280;22233;42.708;23.360;2023-02-18T12:54:24;95825.16;;;17.15;32.29
36192;BME280;22233;42.708;23.360;2023-02-18T13:04:58;95815.41;;;17.70;31.58
36192;BME280;22233;42.708;23.360;2023-02-18T13:11:32;95825.44;;;17.91;31.06
36192;BME280;22233;42.708;23.360;2023-02-18T13:13:36;95811.34;;;17.92;31.37
36192;BME280;22233;42.708;23.360;2023-02-18T13:16:05;95812.00;;;18.02;30.87
36192;BME280;22233;42.708;23.360;2023-02-18T13:18:37;95822.75;;;17.66;30.87
36192;BME280;22233;42.708;23.360;2023-02-18T13:21:08;95816.28;;;17.46;31.61
36192;BME280;22233;42.708;23.360;2023-02-18T13:23:47;95818.13;;;17.30;31.89
36192;BME280;22233;42.708;23.360;2023-02-18T13:26:16;95820.59;;;16.94;32.39
36192;BME280;22233;42.708;23.360;2023-02-18T13:32:19;95826.63;;;17.00;33.01
36192;BME280;22233;42.708;23.360;2023-02-18T13:34:54;95826.88;;;16.83;32.54
36192;BME280;22233;42.708;23.360;2023-02-18T13:39:52;95808.06;;;16.35;33.46
36192;BME280;22233;42.708;23.360;2023-02-18T13:42:33;95806.03;;;16.45;33.75
36192;BME280;22233;42.708;23.360;2023-02-18T13:45:03;95824.31;;;16.53;33.43
36192;BME280;22233;42.708;23.360;2023-02-18T13:47:44;95811.06;;;16.55;33.32
36192;BME280;22233;42.708;23.360;2023-02-18T13:50:30;95815.31;;;16.52;33.43
36192;BME280;22233;42.708;23.360;2023-02-18T13:58:15;95809.97;;;16.10;34.49
36192;BME280;22233;42.708;23.360;2023-02-18T14:00:48;95806.09;;;16.24;33.81
36192;BME280;22233;42.708;23.360;2023-02-18T14:08:42;95794.94;;;15.95;34.19
36192;BME280;22233;42.708;23.360;2023-02-18T14:13:53;95805.56;;;15.97;34.06
36192;BME280;22233;42.708;23.360;2023-02-18T14:16:20;95812.75;;;15.89;34.29
36192;BME280;22233;42.708;23.360;2023-02-18T14:26:20;95828.38;;;15.89;34.20
36192;BME280;22233;42.708;23.360;2023-02-18T14:28:48;95818.44;;;15.63;34.97
36192;BME280;22233;42.708;23.360;2023-02-18T14:33:43;95814.38;;;16.03;34.35
36192;BME280;22233;42.708;23.360;2023-02-18T14:49:58;95793.47;;;15.86;34.74
36192;BME280;22233;42.708;23.360;2023-02-18T14:52:42;95833.31;;;15.95;35.56
36192;BME280;22233;42.708;23.360;2023-02-18T14:55:25;95800.94;;;16.10;34.85
36192;BME280;22233;42.708;23.360;2023-02-18T14:57:54;95811.38;;;15.95;35.23
36192;BME280;22233;42.708;23.360;2023-02-18T15:00:25;95814.34;;;15.90;35.24
36192;BME280;22233;42.708;23.360;2023-02-18T15:02:54;95789.91;;;15.85;35.29
36192;BME280;22233;42.708;23.360;2023-02-18T15:05:24;95789.13;;;15.64;35.71
36192;BME280;22233;42.708;23.360;2023-02-18T15:08:14;95802.91;;;15.76;35.61
36192;BME280;22233;42.708;23.360;2023-02-18T15:10:56;95811.78;;;15.73;35.47
36192;BME280;22233;42.708;23.360;2023-02-18T15:13:28;95799.53;;;15.70;35.84
36192;BME280;22233;42.708;23.360;2023-02-18T15:16:00;95793.09;;;15.87;35.22
36192;BME280;22233;42.708;23.360;2023-02-18T15:18:33;95805.88;;;15.62;36.19
36192;BME280;22233;42.708;23.360;2023-02-18T15:21:04;95794.59;;;15.64;35.92
36192;BME280;22233;42.708;23.360;2023-02-18T15:23:34;95805.69;;;15.46;36.18
36192;BME280;22233;42.708;23.360;2023-02-18T15:26:00;95808.56;;;15.29;36.42
36192;BME280;22233;42.708;23.360;2023-02-18T15:28:28;95803.69;;;15.13;36.72
36192;BME280;22233;42.708;23.360;2023-02-18T15:30:59;95805.09;;;15.20;36.96
36192;BME280;22233;42.708;23.360;2023-02-18T15:33:25;95805.41;;;15.18;36.70
36192;BME280;22233;42.708;23.360;2023-02-18T15:35:51;95797.06;;;15.14;36.76
36192;BME280;22233;42.708;23.360;2023-02-18T15:38:18;95791.66;;;15.06;37.10